sensor_id;sensor_type;location;lat;lon;timestamp;temperature;humidity
23377;DHT22;14353;46.070;13.222;2023-02-28T00:00:08;18.20;32.60
23377;DHT22;14353;46.070;13.222;2023-02-28T00:02:41;18.30;32.70
23377;DHT22;14353;46.070;13.222;2023-02-28T00:05:09;18.30;32.70
23377;DHT22;14353;46.070;13.222;2023-02-28T00:07:36;18.20;32.60
23377;DHT22;14353;46.070;13.222;2023-02-28T00:10:02;18.20;32.60
23377;DHT22;14353;46.070;13.222;2023-02-28T00:12:28;18.20;32.60
23377;DHT22;14353;46.070;13.222;2023-02-28T00:14:54;18.20;32.60
23377;DHT22;14353;46.070;13.222;2023-02-28T00:17:20;18.20;32.60
23377;DHT22;14353;46.070;13.222;2023-02-28T00:19:50;18.20;32.50
23377;DHT22;14353;46.070;13.222;2023-02-28T00:22:17;18.20;32.60
23377;DHT22;14353;46.070;13.222;2023-02-28T00:24:43;18.20;32.60
23377;DHT22;14353;46.070;13.222;2023-02-28T00:27:09;18.20;32.50
23377;DHT22;14353;46.070;13.222;2023-02-28T00:29:35;18.20;32.50
23377;DHT22;14353;46.070;13.222;2023-02-28T00:32:01;18.20;32.60
23377;DHT22;14353;46.070;13.222;2023-02-28T00:34:27;18.20;32.40
23377;DHT22;14353;46.070;13.222;2023-02-28T00:36:53;18.20;32.50
23377;DHT22;14353;46.070;13.222;2023-02-28T00:39:19;18.20;32.50
23377;DHT22;14353;46.070;13.222;2023-02-28T00:41:44;18.20;32.50
23377;DHT22;14353;46.070;13.222;2023-02-28T00:44:10;18.20;32.50
23377;DHT22;14353;46.070;13.222;2023-02-28T00:46:36;18.10;32.40
23377;DHT22;14353;46.070;13.222;2023-02-28T00:49:01;18.20;32.50
23377;DHT22;14353;46.070;13.222;2023-02-28T00:51:27;18.20;32.50
23377;DHT22;14353;46.070;13.222;2023-02-28T00:53:53;18.10;32.40
23377;DHT22;14353;46.070;13.222;2023-02-28T00:56:20;18.20;32.50
23377;DHT22;14353;46.070;13.222;2023-02-28T00:58:46;18.10;32.20
23377;DHT22;14353;46.070;13.222;2023-02-28T01:01:12;18.20;32.40
23377;DHT22;14353;46.070;13.222;2023-02-28T01:03:38;18.20;32.40
23377;DHT22;14353;46.070;13.222;2023-02-28T01:06:04;18.20;32.30
23377;DHT22;14353;46.070;13.222;2023-02-28T01:08:30;18.10;32.20
23377;DHT22;14353;46.070;13.222;2023-02-28T01:10:55;18.10;32.30
23377;DHT22;14353;46.070;13.222;2023-02-28T01:13:21;18.10;32.20
23377;DHT22;14353;46.070;13.222;2023-02-28T01:15:54;18.10;32.40
23377;DHT22;14353;46.070;13.222;2023-02-28T01:18:21;18.10;32.30
23377;DHT22;14353;46.070;13.222;2023-02-28T01:20:47;18.10;32.40
23377;DHT22;14353;46.070;13.222;2023-02-28T01:23:13;18.10;32.40
23377;DHT22;14353;46.070;13.222;2023-02-28T01:25:39;18.10;32.40
23377;DHT22;14353;46.070;13.222;2023-02-28T01:28:05;18.10;32.40
23377;DHT22;14353;46.070;13.222;2023-02-28T01:30:32;18.10;32.40
23377;DHT22;14353;46.070;13.222;2023-02-28T01:32:58;18.10;32.30
23377;DHT22;14353;46.070;13.222;2023-02-28T01:35:24;18.10;32.40
23377;DHT22;14353;46.070;13.222;2023-02-28T01:37:50;18.10;32.40
23377;DHT22;14353;46.070;13.222;2023-02-28T01:40:16;18.10;32.40
23377;DHT22;14353;46.070;13.222;2023-02-28T01:42:41;18.10;32.40
23377;DHT22;14353;46.070;13.222;2023-02-28T01:47:45;18.10;32.40
23377;DHT22;14353;46.070;13.222;2023-02-28T01:50:16;18.10;32.40
23377;DHT22;14353;46.070;13.222;2023-02-28T01:52:44;18.10;32.30
23377;DHT22;14353;46.070;13.222;2023-02-28T01:55:11;18.10;32.20
23377;DHT22;14353;46.070;13.222;2023-02-28T01:57:48;18.10;31.90
23377;DHT22;14353;46.070;13.222;2023-02-28T02:00:18;18.10;32.20
23377;DHT22;14353;46.070;13.222;2023-02-28T02:02:48;18.00;32.20
23377;DHT22;14353;46.070;13.222;2023-02-28T02:07:44;18.00;32.00
23377;DHT22;14353;46.070;13.222;2023-02-28T02:15:44;18.00;32.20
23377;DHT22;14353;46.070;13.222;2023-02-28T02:18:29;18.00;32.20
23377;DHT22;14353;46.070;13.222;2023-02-28T02:34:49;18.00;32.20
23377;DHT22;14353;46.070;13.222;2023-02-28T02:37:25;18.00;32.10
23377;DHT22;14353;46.070;13.222;2023-02-28T02:40:22;18.00;32.10
23377;DHT22;14353;46.070;13.222;2023-02-28T02:43:13;18.00;32.30
23377;DHT22;14353;46.070;13.222;2023-02-28T02:45:42;18.00;32.20
23377;DHT22;14353;46.070;13.222;2023-02-28T02:48:14;18.00;32.20
23377;DHT22;14353;46.070;13.222;2023-02-28T02:50:54;18.00;32.20
23377;DHT22;14353;46.070;13.222;2023-02-28T02:53:25;18.00;32.10
23377;DHT22;14353;46.070;13.222;2023-02-28T02:55:53;17.90;32.20
23377;DHT22;14353;46.070;13.222;2023-02-28T02:58:24;18.00;32.20
23377;DHT22;14353;46.070;13.222;2023-02-28T03:00:54;18.00;32.20
23377;DHT22;14353;46.070;13.222;2023-02-28T03:03:22;17.90;32.20
23377;DHT22;14353;46.070;13.222;2023-02-28T03:05:55;17.90;32.20
23377;DHT22;14353;46.070;13.222;2023-02-28T03:08:22;17.90;32.30
23377;DHT22;14353;46.070;13.222;2023-02-28T03:11:00;17.90;32.20
23377;DHT22;14353;46.070;13.222;2023-02-28T03:14:10;17.90;32.20
23377;DHT22;14353;46.070;13.222;2023-02-28T03:32:58;17.90;32.20
23377;DHT22;14353;46.070;13.222;2023-02-28T03:35:32;17.90;32.20
23377;DHT22;14353;46.070;13.222;2023-02-28T03:38:13;17.90;32.10
23377;DHT22;14353;46.070;13.222;2023-02-28T03:40:45;17.90;32.20
23377;DHT22;14353;46.070;13.222;2023-02-28T03:43:18;17.90;32.10
23377;DHT22;14353;46.070;13.222;2023-02-28T03:45:45;17.90;32.20
23377;DHT22;14353;46.070;13.222;2023-02-28T03:48:38;17.90;32.20
23377;DHT22;14353;46.070;13.222;2023-02-28T03:51:07;17.90;32.20
23377;DHT22;14353;46.070;13.222;2023-02-28T03:53:39;17.90;32.10
23377;DHT22;14353;46.070;13.222;2023-02-28T03:56:14;17.90;32.10
23377;DHT22;14353;46.070;13.222;2023-02-28T03:58:49;17.90;32.20
23377;DHT22;14353;46.070;13.222;2023-02-28T04:01:38;17.90;32.20
23377;DHT22;14353;46.070;13.222;2023-02-28T04:04:07;17.90;32.20
23377;DHT22;14353;46.070;13.222;2023-02-28T04:06:34;17.90;32.10
23377;DHT22;14353;46.070;13.222;2023-02-28T04:09:01;17.90;32.20
23377;DHT22;14353;46.070;13.222;2023-02-28T04:11:34;17.80;32.20
23377;DHT22;14353;46.070;13.222;2023-02-28T04:14:01;17.80;32.20
23377;DHT22;14353;46.070;13.222;2023-02-28T04:16:28;17.80;32.20
23377;DHT22;14353;46.070;13.222;2023-02-28T04:18:53;17.80;32.20
23377;DHT22;14353;46.070;13.222;2023-02-28T04:21:19;17.80;32.10
23377;DHT22;14353;46.070;13.222;2023-02-28T04:23:47;17.80;32.10
23377;DHT22;14353;46.070;13.222;2023-02-28T04:26:13;17.80;32.10
23377;DHT22;14353;46.070;13.222;2023-02-28T04:28:39;17.80;32.20
23377;DHT22;14353;46.070;13.222;2023-02-28T04:31:05;17.80;32.10
23377;DHT22;14353;46.070;13.222;2023-02-28T04:33:32;17.80;32.10
23377;DHT22;14353;46.070;13.222;2023-02-28T04:36:02;17.80;32.10
23377;DHT22;14353;46.070;13.222;2023-02-28T04:38:32;17.80;32.10
23377;DHT22;14353;46.070;13.222;2023-02-28T04:40:59;17.80;32.20
23377;DHT22;14353;46.070;13.222;2023-02-28T04:43:29;17.80;32.20
23377;DHT22;14353;46.070;13.222;2023-02-28T04:45:56;17.80;32.20
23377;DHT22;14353;46.070;13.222;2023-02-28T04:48:24;17.80;32.20
23377;DHT22;14353;46.070;13.222;2023-02-28T04:50:50;17.80;32.20
23377;DHT22;14353;46.070;13.222;2023-02-28T04:53:16;17.80;32.20
23377;DHT22;14353;46.070;13.222;2023-02-28T04:55:42;17.80;32.20
23377;DHT22;14353;46.070;13.222;2023-02-28T04:58:08;17.80;32.20
23377;DHT22;14353;46.070;13.222;2023-02-28T05:00:34;17.80;32.30
23377;DHT22;14353;46.070;13.222;2023-02-28T05:03:00;17.80;32.20
23377;DHT22;14353;46.070;13.222;2023-02-28T05:05:25;17.80;32.20
23377;DHT22;14353;46.070;13.222;2023-02-28T05:07:51;17.80;32.30
23377;DHT22;14353;46.070;13.222;2023-02-28T05:10:19;17.80;32.30
23377;DHT22;14353;46.070;13.222;2023-02-28T05:12:44;17.70;32.20
23377;DHT22;14353;46.070;13.222;2023-02-28T05:15:14;17.70;32.30
23377;DHT22;14353;46.070;13.222;2023-02-28T05:17:40;17.80;32.30
23377;DHT22;14353;46.070;13.222;2023-02-28T05:20:07;17.70;32.30
23377;DHT22;14353;46.070;13.222;2023-02-28T05:22:34;17.70;32.30
23377;DHT22;14353;46.070;13.222;2023-02-28T05:25:00;17.70;32.40
23377;DHT22;14353;46.070;13.222;2023-02-28T05:27:25;17.70;32.30
23377;DHT22;14353;46.070;13.222;2023-02-28T05:29:51;17.70;32.20
23377;DHT22;14353;46.070;13.222;2023-02-28T05:32:17;17.70;32.30
23377;DHT22;14353;46.070;13.222;2023-02-28T05:34:42;17.70;32.40
23377;DHT22;14353;46.070;13.222;2023-02-28T05:37:13;17.70;32.40
23377;DHT22;14353;46.070;13.222;2023-02-28T05:39:39;17.70;32.40
23377;DHT22;14353;46.070;13.222;2023-02-28T05:42:05;17.70;32.50
23377;DHT22;14353;46.070;13.222;2023-02-28T05:44:31;17.70;32.40
23377;DHT22;14353;46.070;13.222;2023-02-28T05:46:57;17.70;32.40
23377;DHT22;14353;46.070;13.222;2023-02-28T05:49:23;17.70;32.40
23377;DHT22;14353;46.070;13.222;2023-02-28T05:51:49;17.70;32.40
23377;DHT22;14353;46.070;13.222;2023-02-28T05:54:14;17.70;32.40
23377;DHT22;14353;46.070;13.222;2023-02-28T05:56:40;17.70;32.40
23377;DHT22;14353;46.070;13.222;2023-02-28T05:59:09;17.70;32.40
23377;DHT22;14353;46.070;13.222;2023-02-28T06:01:40;17.70;32.50
23377;DHT22;14353;46.070;13.222;2023-02-28T06:04:08;17.70;32.40
23377;DHT22;14353;46.070;13.222;2023-02-28T06:06:34;17.70;32.50
23377;DHT22;14353;46.070;13.222;2023-02-28T06:09:01;17.70;32.50
23377;DHT22;14353;46.070;13.222;2023-02-28T06:11:27;17.70;32.50
23377;DHT22;14353;46.070;13.222;2023-02-28T06:13:57;17.70;32.50
23377;DHT22;14353;46.070;13.222;2023-02-28T06:16:26;17.70;32.40
23377;DHT22;14353;46.070;13.222;2023-02-28T06:18:52;17.70;32.50
23377;DHT22;14353;46.070;13.222;2023-02-28T06:21:21;17.60;32.50
23377;DHT22;14353;46.070;13.222;2023-02-28T06:23:47;17.60;32.50
23377;DHT22;14353;46.070;13.222;2023-02-28T06:26:13;17.60;32.50
23377;DHT22;14353;46.070;13.222;2023-02-28T06:28:38;17.70;32.40
23377;DHT22;14353;46.070;13.222;2023-02-28T06:31:09;17.60;32.50
23377;DHT22;14353;46.070;13.222;2023-02-28T06:33:36;17.60;32.50
23377;DHT22;14353;46.070;13.222;2023-02-28T06:36:03;17.60;32.30
23377;DHT22;14353;46.070;13.222;2023-02-28T06:38:29;17.70;32.10
23377;DHT22;14353;46.070;13.222;2023-02-28T06:40:56;17.70;31.90
23377;DHT22;14353;46.070;13.222;2023-02-28T06:43:24;17.70;31.90
23377;DHT22;14353;46.070;13.222;2023-02-28T06:45:50;17.70;31.80
23377;DHT22;14353;46.070;13.222;2023-02-28T06:48:16;17.70;31.70
23377;DHT22;14353;46.070;13.222;2023-02-28T06:50:42;17.70;31.50
23377;DHT22;14353;46.070;13.222;2023-02-28T06:53:08;17.70;31.50
23377;DHT22;14353;46.070;13.222;2023-02-28T06:55:33;17.80;31.50
23377;DHT22;14353;46.070;13.222;2023-02-28T06:57:59;17.70;31.50
23377;DHT22;14353;46.070;13.222;2023-02-28T07:00:25;17.80;31.40
23377;DHT22;14353;46.070;13.222;2023-02-28T07:02:51;17.80;31.50
23377;DHT22;14353;46.070;13.222;2023-02-28T07:05:17;17.80;31.70
23377;DHT22;14353;46.070;13.222;2023-02-28T07:07:43;17.80;31.80
23377;DHT22;14353;46.070;13.222;2023-02-28T07:10:11;17.90;32.20
23377;DHT22;14353;46.070;13.222;2023-02-28T07:12:38;17.90;32.40
23377;DHT22;14353;46.070;13.222;2023-02-28T07:15:05;17.90;32.80
23377;DHT22;14353;46.070;13.222;2023-02-28T07:17:31;18.00;33.10
23377;DHT22;14353;46.070;13.222;2023-02-28T07:19:57;18.00;33.40
23377;DHT22;14353;46.070;13.222;2023-02-28T07:22:23;18.00;33.70
23377;DHT22;14353;46.070;13.222;2023-02-28T07:24:48;18.10;34.00
23377;DHT22;14353;46.070;13.222;2023-02-28T07:27:14;18.10;33.90
23377;DHT22;14353;46.070;13.222;2023-02-28T07:29:49;18.10;34.00
23377;DHT22;14353;46.070;13.222;2023-02-28T07:32:15;18.10;34.00
23377;DHT22;14353;46.070;13.222;2023-02-28T07:34:41;18.20;34.20
23377;DHT22;14353;46.070;13.222;2023-02-28T07:37:07;18.20;34.20
23377;DHT22;14353;46.070;13.222;2023-02-28T07:39:33;18.20;34.30
23377;DHT22;14353;46.070;13.222;2023-02-28T07:41:59;18.30;34.40
23377;DHT22;14353;46.070;13.222;2023-02-28T07:44:26;18.30;34.50
23377;DHT22;14353;46.070;13.222;2023-02-28T07:46:51;18.30;34.50
23377;DHT22;14353;46.070;13.222;2023-02-28T07:49:18;18.30;34.60
23377;DHT22;14353;46.070;13.222;2023-02-28T07:51:44;18.40;34.80
23377;DHT22;14353;46.070;13.222;2023-02-28T07:54:10;18.40;35.00
23377;DHT22;14353;46.070;13.222;2023-02-28T07:56:35;18.40;35.00
23377;DHT22;14353;46.070;13.222;2023-02-28T07:59:01;18.40;35.00
23377;DHT22;14353;46.070;13.222;2023-02-28T08:01:27;18.50;35.00
23377;DHT22;14353;46.070;13.222;2023-02-28T08:03:53;18.50;35.10
23377;DHT22;14353;46.070;13.222;2023-02-28T08:06:24;18.50;35.10
23377;DHT22;14353;46.070;13.222;2023-02-28T08:08:50;18.50;35.20
23377;DHT22;14353;46.070;13.222;2023-02-28T08:11:17;18.60;35.50
23377;DHT22;14353;46.070;13.222;2023-02-28T08:13:44;18.60;36.50
23377;DHT22;14353;46.070;13.222;2023-02-28T08:16:11;18.70;37.50
23377;DHT22;14353;46.070;13.222;2023-02-28T08:18:39;18.70;36.80
23377;DHT22;14353;46.070;13.222;2023-02-28T08:21:06;18.70;36.40
23377;DHT22;14353;46.070;13.222;2023-02-28T08:23:32;18.70;36.30
23377;DHT22;14353;46.070;13.222;2023-02-28T08:25:58;18.80;36.10
23377;DHT22;14353;46.070;13.222;2023-02-28T08:28:24;18.80;36.20
23377;DHT22;14353;46.070;13.222;2023-02-28T08:30:50;18.80;36.30
23377;DHT22;14353;46.070;13.222;2023-02-28T08:33:16;18.80;36.20
23377;DHT22;14353;46.070;13.222;2023-02-28T08:35:42;18.80;36.00
23377;DHT22;14353;46.070;13.222;2023-02-28T08:38:07;18.80;35.90
23377;DHT22;14353;46.070;13.222;2023-02-28T08:40:33;18.90;35.80
23377;DHT22;14353;46.070;13.222;2023-02-28T08:42:59;18.90;35.70
23377;DHT22;14353;46.070;13.222;2023-02-28T08:45:25;18.80;35.40
23377;DHT22;14353;46.070;13.222;2023-02-28T08:47:51;18.90;35.40
23377;DHT22;14353;46.070;13.222;2023-02-28T08:50:20;18.90;35.30
23377;DHT22;14353;46.070;13.222;2023-02-28T08:52:45;18.90;35.30
23377;DHT22;14353;46.070;13.222;2023-02-28T08:55:11;19.00;35.30
23377;DHT22;14353;46.070;13.222;2023-02-28T08:57:37;18.90;35.20
23377;DHT22;14353;46.070;13.222;2023-02-28T09:00:03;19.00;35.20
23377;DHT22;14353;46.070;13.222;2023-02-28T09:02:30;19.00;35.20
23377;DHT22;14353;46.070;13.222;2023-02-28T09:04:57;19.00;35.30
23377;DHT22;14353;46.070;13.222;2023-02-28T09:07:24;19.00;35.20
23377;DHT22;14353;46.070;13.222;2023-02-28T09:09:51;19.00;35.40
23377;DHT22;14353;46.070;13.222;2023-02-28T09:12:21;19.10;35.50
23377;DHT22;14353;46.070;13.222;2023-02-28T09:14:47;19.10;35.50
23377;DHT22;14353;46.070;13.222;2023-02-28T09:17:13;19.10;35.50
23377;DHT22;14353;46.070;13.222;2023-02-28T09:19:39;19.20;35.40
23377;DHT22;14353;46.070;13.222;2023-02-28T09:22:05;19.20;35.40
23377;DHT22;14353;46.070;13.222;2023-02-28T09:24:31;19.20;35.20
23377;DHT22;14353;46.070;13.222;2023-02-28T09:26:57;19.20;35.20
23377;DHT22;14353;46.070;13.222;2023-02-28T09:29:22;19.20;35.20
23377;DHT22;14353;46.070;13.222;2023-02-28T09:31:48;19.30;35.30
23377;DHT22;14353;46.070;13.222;2023-02-28T09:34:15;19.30;35.40
23377;DHT22;14353;46.070;13.222;2023-02-28T09:36:42;19.30;35.50
23377;DHT22;14353;46.070;13.222;2023-02-28T09:39:08;19.40;35.60
23377;DHT22;14353;46.070;13.222;2023-02-28T09:41:43;19.40;35.70
23377;DHT22;14353;46.070;13.222;2023-02-28T09:44:43;19.40;35.70
23377;DHT22;14353;46.070;13.222;2023-02-28T09:49:46;19.50;35.70
23377;DHT22;14353;46.070;13.222;2023-02-28T09:52:22;19.50;35.70
23377;DHT22;14353;46.070;13.222;2023-02-28T09:54:50;19.50;35.70
23377;DHT22;14353;46.070;13.222;2023-02-28T09:57:38;19.60;35.80
23377;DHT22;14353;46.070;13.222;2023-02-28T10:00:24;19.60;35.80
23377;DHT22;14353;46.070;13.222;2023-02-28T10:03:24;19.60;35.80
23377;DHT22;14353;46.070;13.222;2023-02-28T10:06:07;19.70;35.80
23377;DHT22;14353;46.070;13.222;2023-02-28T10:08:42;19.70;35.80
23377;DHT22;14353;46.070;13.222;2023-02-28T10:11:13;19.80;35.90
23377;DHT22;14353;46.070;13.222;2023-02-28T10:14:00;19.80;35.80
23377;DHT22;14353;46.070;13.222;2023-02-28T10:21:39;19.90;35.90
23377;DHT22;14353;46.070;13.222;2023-02-28T10:24:32;19.90;35.90
23377;DHT22;14353;46.070;13.222;2023-02-28T10:27:14;19.90;36.00
23377;DHT22;14353;46.070;13.222;2023-02-28T10:29:43;20.00;36.00
23377;DHT22;14353;46.070;13.222;2023-02-28T10:32:13;20.00;36.00
23377;DHT22;14353;46.070;13.222;2023-02-28T10:34:40;20.10;36.00
23377;DHT22;14353;46.070;13.222;2023-02-28T10:37:06;20.10;36.00
23377;DHT22;14353;46.070;13.222;2023-02-28T10:39:46;20.10;36.00
23377;DHT22;14353;46.070;13.222;2023-02-28T10:42:28;20.20;36.00
23377;DHT22;14353;46.070;13.222;2023-02-28T10:47:34;20.30;35.90
23377;DHT22;14353;46.070;13.222;2023-02-28T10:50:02;20.30;35.90
23377;DHT22;14353;46.070;13.222;2023-02-28T10:52:39;20.40;35.90
23377;DHT22;14353;46.070;13.222;2023-02-28T10:55:20;20.40;35.80
23377;DHT22;14353;46.070;13.222;2023-02-28T10:57:47;20.40;35.70
23377;DHT22;14353;46.070;13.222;2023-02-28T11:00:15;20.50;35.80
23377;DHT22;14353;46.070;13.222;2023-02-28T11:02:41;20.50;35.70
23377;DHT22;14353;46.070;13.222;2023-02-28T11:05:44;20.60;35.70
23377;DHT22;14353;46.070;13.222;2023-02-28T11:08:16;20.60;35.60
23377;DHT22;14353;46.070;13.222;2023-02-28T11:11:08;20.70;35.60
23377;DHT22;14353;46.070;13.222;2023-02-28T11:13:35;20.70;35.60
23377;DHT22;14353;46.070;13.222;2023-02-28T11:16:09;20.70;35.60
23377;DHT22;14353;46.070;13.222;2023-02-28T11:21:08;20.80;35.60
23377;DHT22;14353;46.070;13.222;2023-02-28T11:23:35;20.80;35.50
23377;DHT22;14353;46.070;13.222;2023-02-28T11:26:03;20.80;35.50
23377;DHT22;14353;46.070;13.222;2023-02-28T11:28:38;20.90;35.50
23377;DHT22;14353;46.070;13.222;2023-02-28T11:36:24;21.00;35.50
23377;DHT22;14353;46.070;13.222;2023-02-28T11:39:04;21.00;36.20
23377;DHT22;14353;46.070;13.222;2023-02-28T11:59:12;21.20;35.10
23377;DHT22;14353;46.070;13.222;2023-02-28T12:20:23;21.40;33.00
23377;DHT22;14353;46.070;13.222;2023-02-28T12:28:19;21.50;32.50
23377;DHT22;14353;46.070;13.222;2023-02-28T12:30:54;21.50;32.60
23377;DHT22;14353;46.070;13.222;2023-02-28T12:33:23;21.60;32.80
23377;DHT22;14353;46.070;13.222;2023-02-28T12:35:56;21.60;32.90
23377;DHT22;14353;46.070;13.222;2023-02-28T12:38:29;21.60;32.90
23377;DHT22;14353;46.070;13.222;2023-02-28T12:41:00;21.70;32.90
23377;DHT22;14353;46.070;13.222;2023-02-28T12:43:33;21.70;32.10
23377;DHT22;14353;46.070;13.222;2023-02-28T12:46:03;21.80;32.60
23377;DHT22;14353;46.070;13.222;2023-02-28T12:48:52;21.80;32.70
23377;DHT22;14353;46.070;13.222;2023-02-28T12:51:19;21.80;32.60
23377;DHT22;14353;46.070;13.222;2023-02-28T12:59:13;21.90;31.00
23377;DHT22;14353;46.070;13.222;2023-02-28T13:01:52;21.90;31.00
23377;DHT22;14353;46.070;13.222;2023-02-28T13:10:04;22.00;31.60
23377;DHT22;14353;46.070;13.222;2023-02-28T13:12:32;22.00;31.60
23377;DHT22;14353;46.070;13.222;2023-02-28T13:15:08;22.10;31.70
23377;DHT22;14353;46.070;13.222;2023-02-28T13:17:41;22.10;31.70
23377;DHT22;14353;46.070;13.222;2023-02-28T13:20:37;22.20;31.80
23377;DHT22;14353;46.070;13.222;2023-02-28T13:26:05;22.30;31.90
23377;DHT22;14353;46.070;13.222;2023-02-28T13:40:06;22.50;32.00
23377;DHT22;14353;46.070;13.222;2023-02-28T13:47:49;22.70;32.00
23377;DHT22;14353;46.070;13.222;2023-02-28T13:53:27;22.70;32.00
23377;DHT22;14353;46.070;13.222;2023-02-28T13:59:05;22.80;32.00
23377;DHT22;14353;46.070;13.222;2023-02-28T14:07:43;22.80;31.70
23377;DHT22;14353;46.070;13.222;2023-02-28T14:12:57;22.80;31.70
23377;DHT22;14353;46.070;13.222;2023-02-28T14:15:45;22.80;31.70
23377;DHT22;14353;46.070;13.222;2023-02-28T14:18:32;22.80;31.70
23377;DHT22;14353;46.070;13.222;2023-02-28T14:23:50;22.90;31.70
23377;DHT22;14353;46.070;13.222;2023-02-28T14:29:30;22.90;31.60
23377;DHT22;14353;46.070;13.222;2023-02-28T14:37:54;22.90;31.60
23377;DHT22;14353;46.070;13.222;2023-02-28T14:43:03;23.00;31.70
23377;DHT22;14353;46.070;13.222;2023-02-28T14:45:34;22.90;31.60
23377;DHT22;14353;46.070;13.222;2023-02-28T14:48:01;23.00;31.60
23377;DHT22;14353;46.070;13.222;2023-02-28T14:50:35;23.00;31.50
23377;DHT22;14353;46.070;13.222;2023-02-28T14:53:02;23.00;31.20
23377;DHT22;14353;46.070;13.222;2023-02-28T14:55:34;23.00;31.10
23377;DHT22;14353;46.070;13.222;2023-02-28T14:58:06;23.00;30.90
23377;DHT22;14353;46.070;13.222;2023-02-28T15:00:49;22.90;28.70
23377;DHT22;14353;46.070;13.222;2023-02-28T15:06:03;22.90;28.20
23377;DHT22;14353;46.070;13.222;2023-02-28T15:08:29;22.90;27.70
23377;DHT22;14353;46.070;13.222;2023-02-28T15:11:02;22.80;28.70
23377;DHT22;14353;46.070;13.222;2023-02-28T15:13:43;22.80;29.70
23377;DHT22;14353;46.070;13.222;2023-02-28T15:16:12;22.80;29.30
23377;DHT22;14353;46.070;13.222;2023-02-28T15:21:12;22.90;29.50
23377;DHT22;14353;46.070;13.222;2023-02-28T15:23:41;22.90;29.60
23377;DHT22;14353;46.070;13.222;2023-02-28T15:26:13;22.90;29.70
23377;DHT22;14353;46.070;13.222;2023-02-28T15:28:41;23.00;29.80
23377;DHT22;14353;46.070;13.222;2023-02-28T15:31:29;23.00;29.80
23377;DHT22;14353;46.070;13.222;2023-02-28T15:33:58;23.00;29.90
23377;DHT22;14353;46.070;13.222;2023-02-28T15:36:30;23.00;30.00
23377;DHT22;14353;46.070;13.222;2023-02-28T15:38:59;23.10;30.60
23377;DHT22;14353;46.070;13.222;2023-02-28T15:41:28;23.10;30.00
23377;DHT22;14353;46.070;13.222;2023-02-28T15:44:14;23.10;30.10
23377;DHT22;14353;46.070;13.222;2023-02-28T15:46:44;23.10;30.30
23377;DHT22;14353;46.070;13.222;2023-02-28T15:49:21;23.10;30.30
23377;DHT22;14353;46.070;13.222;2023-02-28T15:51:49;23.10;30.40
23377;DHT22;14353;46.070;13.222;2023-02-28T15:54:34;23.10;30.80
23377;DHT22;14353;46.070;13.222;2023-02-28T15:57:05;23.00;30.70
23377;DHT22;14353;46.070;13.222;2023-02-28T15:59:33;23.00;30.80
23377;DHT22;14353;46.070;13.222;2023-02-28T16:04:29;22.90;30.90
23377;DHT22;14353;46.070;13.222;2023-02-28T16:09:25;22.90;30.90
23377;DHT22;14353;46.070;13.222;2023-02-28T16:11:54;22.80;30.90
23377;DHT22;14353;46.070;13.222;2023-02-28T16:14:25;22.80;30.90
23377;DHT22;14353;46.070;13.222;2023-02-28T16:17:20;22.80;31.00
23377;DHT22;14353;46.070;13.222;2023-02-28T16:19:46;22.70;31.10
23377;DHT22;14353;46.070;13.222;2023-02-28T16:22:12;22.70;31.20
23377;DHT22;14353;46.070;13.222;2023-02-28T16:24:37;22.70;31.20
23377;DHT22;14353;46.070;13.222;2023-02-28T16:27:04;22.60;31.20
23377;DHT22;14353;46.070;13.222;2023-02-28T16:29:34;22.60;31.30
23377;DHT22;14353;46.070;13.222;2023-02-28T16:32:01;22.60;31.30
23377;DHT22;14353;46.070;13.222;2023-02-28T16:34:28;22.50;31.30
23377;DHT22;14353;46.070;13.222;2023-02-28T16:36:53;22.50;31.40
23377;DHT22;14353;46.070;13.222;2023-02-28T16:39:19;22.40;31.40
23377;DHT22;14353;46.070;13.222;2023-02-28T16:41:49;22.40;31.40
23377;DHT22;14353;46.070;13.222;2023-02-28T16:44:28;22.40;31.40
23377;DHT22;14353;46.070;13.222;2023-02-28T16:46:54;22.30;31.40
23377;DHT22;14353;46.070;13.222;2023-02-28T16:49:20;22.30;31.50
23377;DHT22;14353;46.070;13.222;2023-02-28T16:51:46;22.20;31.50
23377;DHT22;14353;46.070;13.222;2023-02-28T16:54:12;22.20;31.60
23377;DHT22;14353;46.070;13.222;2023-02-28T16:56:42;22.10;31.60
23377;DHT22;14353;46.070;13.222;2023-02-28T16:59:10;22.10;31.70
23377;DHT22;14353;46.070;13.222;2023-02-28T17:01:36;22.00;31.60
23377;DHT22;14353;46.070;13.222;2023-02-28T17:04:01;22.00;31.80
23377;DHT22;14353;46.070;13.222;2023-02-28T17:06:28;21.90;31.90
23377;DHT22;14353;46.070;13.222;2023-02-28T17:08:56;21.90;32.00
23377;DHT22;14353;46.070;13.222;2023-02-28T17:11:22;21.80;31.90
23377;DHT22;14353;46.070;13.222;2023-02-28T17:13:48;21.80;32.00
23377;DHT22;14353;46.070;13.222;2023-02-28T17:18:46;21.80;32.10
23377;DHT22;14353;46.070;13.222;2023-02-28T17:21:15;21.70;32.20
23377;DHT22;14353;46.070;13.222;2023-02-28T17:23:41;21.70;32.20
23377;DHT22;14353;46.070;13.222;2023-02-28T17:26:08;21.60;32.30
23377;DHT22;14353;46.070;13.222;2023-02-28T17:28:35;21.60;32.30
23377;DHT22;14353;46.070;13.222;2023-02-28T17:31:01;21.60;32.40
23377;DHT22;14353;46.070;13.222;2023-02-28T17:33:26;21.60;32.40
23377;DHT22;14353;46.070;13.222;2023-02-28T17:35:52;21.60;32.50
23377;DHT22;14353;46.070;13.222;2023-02-28T17:38:19;21.50;32.50
23377;DHT22;14353;46.070;13.222;2023-02-28T17:40:45;21.50;32.50
23377;DHT22;14353;46.070;13.222;2023-02-28T17:43:11;21.50;32.60
23377;DHT22;14353;46.070;13.222;2023-02-28T17:45:37;21.40;32.60
23377;DHT22;14353;46.070;13.222;2023-02-28T17:48:03;21.40;32.60
23377;DHT22;14353;46.070;13.222;2023-02-28T17:50:29;21.40;32.70
23377;DHT22;14353;46.070;13.222;2023-02-28T17:52:54;21.40;32.70
23377;DHT22;14353;46.070;13.222;2023-02-28T17:55:20;21.30;32.70
23377;DHT22;14353;46.070;13.222;2023-02-28T17:57:46;21.30;32.70
23377;DHT22;14353;46.070;13.222;2023-02-28T18:00:14;21.30;32.80
23377;DHT22;14353;46.070;13.222;2023-02-28T18:02:41;21.30;32.70
23377;DHT22;14353;46.070;13.222;2023-02-28T18:05:08;21.20;32.70
23377;DHT22;14353;46.070;13.222;2023-02-28T18:07:36;21.20;32.80
23377;DHT22;14353;46.070;13.222;2023-02-28T18:10:01;21.20;32.80
23377;DHT22;14353;46.070;13.222;2023-02-28T18:12:28;21.20;32.90
23377;DHT22;14353;46.070;13.222;2023-02-28T18:14:54;21.20;32.90
23377;DHT22;14353;46.070;13.222;2023-02-28T18:17:20;21.10;32.90
23377;DHT22;14353;46.070;13.222;2023-02-28T18:19:46;21.20;33.00
23377;DHT22;14353;46.070;13.222;2023-02-28T18:22:11;21.10;33.00